Terminal Aerodrome Forecast
Issued by NWS Duluth, MN

Home | Current Version | Previous Version | Text Only | Print | Product List | Glossary On
Versions: 1 2 3 4 5 6 7 8 9 10 11 12 13 14 15 16 17 18 19 20 21 22 23 24
906
FTUS43 KDLH 221338 AAB
TAFINL
TAF AMD
KINL 221338Z 2214/2312 28005KT P6SM SCT005
      TEMPO 2214/2215 BKN005
     FM221500 29010KT P6SM BKN080
     FM221600 30015G23KT P6SM VCSH SCT030 BKN050
      TEMPO 2218/2222 6SM -SHRA BKN030
     FM230100 33007KT P6SM SCT035 BKN070
     FM230400 33005KT P6SM SCT070=

USA.gov is the U.S. government's official web portal to all federal, state and local government web resources and services.